sensor_id;sensor_type;location;lat;lon;timestamp;P1;durP1;ratioP1;P2;durP2;ratioP2
59728;SDS011;45588;51.598;5.618;2023-02-28T00:02:24;28.65;;;17.25;;
59728;SDS011;45588;51.598;5.618;2023-02-28T00:04:49;30.77;;;18.15;;
59728;SDS011;45588;51.598;5.618;2023-02-28T00:07:18;28.15;;;17.13;;
59728;SDS011;45588;51.598;5.618;2023-02-28T00:09:43;30.80;;;18.77;;
59728;SDS011;45588;51.598;5.618;2023-02-28T00:12:08;30.38;;;16.08;;
59728;SDS011;45588;51.598;5.618;2023-02-28T00:14:35;40.30;;;17.33;;
59728;SDS011;45588;51.598;5.618;2023-02-28T00:17:00;32.83;;;16.95;;
59728;SDS011;45588;51.598;5.618;2023-02-28T00:19:25;29.63;;;17.40;;
59728;SDS011;45588;51.598;5.618;2023-02-28T00:21:50;30.30;;;16.50;;
59728;SDS011;45588;51.598;5.618;2023-02-28T00:24:15;27.17;;;16.25;;
59728;SDS011;45588;51.598;5.618;2023-02-28T00:26:41;26.88;;;15.57;;
59728;SDS011;45588;51.598;5.618;2023-02-28T00:29:06;25.05;;;16.30;;
59728;SDS011;45588;51.598;5.618;2023-02-28T00:31:31;28.02;;;16.67;;
59728;SDS011;45588;51.598;5.618;2023-02-28T00:33:56;30.33;;;16.42;;
59728;SDS011;45588;51.598;5.618;2023-02-28T00:36:21;33.17;;;18.05;;
59728;SDS011;45588;51.598;5.618;2023-02-28T00:38:47;32.53;;;18.13;;
59728;SDS011;45588;51.598;5.618;2023-02-28T00:41:12;25.20;;;15.35;;
59728;SDS011;45588;51.598;5.618;2023-02-28T00:43:38;30.63;;;15.95;;
59728;SDS011;45588;51.598;5.618;2023-02-28T00:46:03;23.10;;;14.43;;
59728;SDS011;45588;51.598;5.618;2023-02-28T00:48:29;25.90;;;14.55;;
59728;SDS011;45588;51.598;5.618;2023-02-28T00:50:54;25.58;;;15.32;;
59728;SDS011;45588;51.598;5.618;2023-02-28T00:53:20;24.92;;;14.40;;
59728;SDS011;45588;51.598;5.618;2023-02-28T00:55:46;30.80;;;15.75;;
59728;SDS011;45588;51.598;5.618;2023-02-28T00:58:12;27.95;;;13.68;;
59728;SDS011;45588;51.598;5.618;2023-02-28T01:00:37;24.20;;;14.25;;
59728;SDS011;45588;51.598;5.618;2023-02-28T01:03:02;26.75;;;16.25;;
59728;SDS011;45588;51.598;5.618;2023-02-28T01:05:27;31.27;;;14.75;;
59728;SDS011;45588;51.598;5.618;2023-02-28T01:07:52;23.15;;;13.63;;
59728;SDS011;45588;51.598;5.618;2023-02-28T01:10:18;22.00;;;12.70;;
59728;SDS011;45588;51.598;5.618;2023-02-28T01:12:43;32.30;;;14.50;;
59728;SDS011;45588;51.598;5.618;2023-02-28T01:15:09;22.25;;;12.50;;
59728;SDS011;45588;51.598;5.618;2023-02-28T01:17:35;29.30;;;15.20;;
59728;SDS011;45588;51.598;5.618;2023-02-28T01:20:00;29.60;;;15.75;;
59728;SDS011;45588;51.598;5.618;2023-02-28T01:22:26;24.35;;;14.90;;
59728;SDS011;45588;51.598;5.618;2023-02-28T01:24:51;29.35;;;14.65;;
59728;SDS011;45588;51.598;5.618;2023-02-28T01:27:16;21.88;;;13.93;;
59728;SDS011;45588;51.598;5.618;2023-02-28T01:29:41;24.45;;;13.63;;
59728;SDS011;45588;51.598;5.618;2023-02-28T01:32:06;26.55;;;15.52;;
59728;SDS011;45588;51.598;5.618;2023-02-28T01:34:31;24.08;;;14.15;;
59728;SDS011;45588;51.598;5.618;2023-02-28T01:36:57;27.63;;;12.85;;
59728;SDS011;45588;51.598;5.618;2023-02-28T01:39:23;22.48;;;14.35;;
59728;SDS011;45588;51.598;5.618;2023-02-28T01:41:48;21.55;;;14.05;;
59728;SDS011;45588;51.598;5.618;2023-02-28T01:46:58;26.80;;;14.55;;
59728;SDS011;45588;51.598;5.618;2023-02-28T01:49:23;26.13;;;12.90;;
59728;SDS011;45588;51.598;5.618;2023-02-28T01:51:49;26.15;;;12.65;;
59728;SDS011;45588;51.598;5.618;2023-02-28T01:54:21;22.58;;;12.55;;
59728;SDS011;45588;51.598;5.618;2023-02-28T01:56:49;23.58;;;12.70;;
59728;SDS011;45588;51.598;5.618;2023-02-28T01:59:24;21.83;;;12.57;;
59728;SDS011;45588;51.598;5.618;2023-02-28T02:01:52;26.58;;;14.32;;
59728;SDS011;45588;51.598;5.618;2023-02-28T02:04:18;26.08;;;14.27;;
59728;SDS011;45588;51.598;5.618;2023-02-28T02:06:44;32.15;;;15.52;;
59728;SDS011;45588;51.598;5.618;2023-02-28T02:09:11;28.27;;;14.60;;
59728;SDS011;45588;51.598;5.618;2023-02-28T02:11:36;25.08;;;13.98;;
59728;SDS011;45588;51.598;5.618;2023-02-28T02:30:40;23.27;;;14.75;;
59728;SDS011;45588;51.598;5.618;2023-02-28T02:35:47;30.15;;;15.38;;
59728;SDS011;45588;51.598;5.618;2023-02-28T02:38:20;27.58;;;16.10;;
59728;SDS011;45588;51.598;5.618;2023-02-28T02:46:14;34.10;;;16.70;;
59728;SDS011;45588;51.598;5.618;2023-02-28T02:48:42;33.95;;;14.88;;
59728;SDS011;45588;51.598;5.618;2023-02-28T02:51:13;31.50;;;16.27;;
59728;SDS011;45588;51.598;5.618;2023-02-28T02:53:50;29.15;;;16.45;;
59728;SDS011;45588;51.598;5.618;2023-02-28T02:56:21;26.60;;;14.30;;
59728;SDS011;45588;51.598;5.618;2023-02-28T03:01:17;28.83;;;14.35;;
59728;SDS011;45588;51.598;5.618;2023-02-28T03:03:52;22.25;;;12.88;;
59728;SDS011;45588;51.598;5.618;2023-02-28T03:06:17;22.00;;;14.07;;
59728;SDS011;45588;51.598;5.618;2023-02-28T03:08:42;26.88;;;13.35;;
59728;SDS011;45588;51.598;5.618;2023-02-28T03:11:11;22.42;;;12.10;;
59728;SDS011;45588;51.598;5.618;2023-02-28T03:21:45;23.33;;;13.70;;
59728;SDS011;45588;51.598;5.618;2023-02-28T03:24:39;17.15;;;11.10;;
59728;SDS011;45588;51.598;5.618;2023-02-28T03:27:04;22.20;;;12.25;;
59728;SDS011;45588;51.598;5.618;2023-02-28T03:29:35;18.38;;;12.48;;
59728;SDS011;45588;51.598;5.618;2023-02-28T03:32:10;20.83;;;12.00;;
59728;SDS011;45588;51.598;5.618;2023-02-28T03:34:40;23.50;;;13.00;;
59728;SDS011;45588;51.598;5.618;2023-02-28T03:37:17;20.63;;;12.30;;
59728;SDS011;45588;51.598;5.618;2023-02-28T03:39:45;17.80;;;10.77;;
59728;SDS011;45588;51.598;5.618;2023-02-28T03:42:12;20.65;;;11.68;;
59728;SDS011;45588;51.598;5.618;2023-02-28T03:47:07;19.00;;;11.63;;
59728;SDS011;45588;51.598;5.618;2023-02-28T03:49:35;17.92;;;11.85;;
59728;SDS011;45588;51.598;5.618;2023-02-28T03:52:02;20.52;;;12.27;;
59728;SDS011;45588;51.598;5.618;2023-02-28T03:54:30;18.60;;;11.30;;
59728;SDS011;45588;51.598;5.618;2023-02-28T03:56:58;16.88;;;11.85;;
59728;SDS011;45588;51.598;5.618;2023-02-28T03:59:27;25.13;;;12.25;;
59728;SDS011;45588;51.598;5.618;2023-02-28T04:01:53;18.80;;;11.38;;
59728;SDS011;45588;51.598;5.618;2023-02-28T04:04:19;19.75;;;10.80;;
59728;SDS011;45588;51.598;5.618;2023-02-28T04:06:45;19.83;;;10.45;;
59728;SDS011;45588;51.598;5.618;2023-02-28T04:09:11;19.13;;;10.60;;
59728;SDS011;45588;51.598;5.618;2023-02-28T04:11:37;20.75;;;10.38;;
59728;SDS011;45588;51.598;5.618;2023-02-28T04:14:03;18.90;;;10.82;;
59728;SDS011;45588;51.598;5.618;2023-02-28T04:16:29;16.23;;;10.35;;
59728;SDS011;45588;51.598;5.618;2023-02-28T04:18:55;15.98;;;10.57;;
59728;SDS011;45588;51.598;5.618;2023-02-28T04:21:27;16.75;;;9.43;;
59728;SDS011;45588;51.598;5.618;2023-02-28T04:23:53;12.60;;;9.05;;
59728;SDS011;45588;51.598;5.618;2023-02-28T04:26:18;14.43;;;9.27;;
59728;SDS011;45588;51.598;5.618;2023-02-28T04:28:43;14.32;;;9.60;;
59728;SDS011;45588;51.598;5.618;2023-02-28T04:31:08;14.10;;;9.40;;
59728;SDS011;45588;51.598;5.618;2023-02-28T04:33:33;13.68;;;9.20;;
59728;SDS011;45588;51.598;5.618;2023-02-28T04:36:02;17.50;;;10.90;;
59728;SDS011;45588;51.598;5.618;2023-02-28T04:38:29;11.98;;;8.80;;
59728;SDS011;45588;51.598;5.618;2023-02-28T04:40:56;18.17;;;8.77;;
59728;SDS011;45588;51.598;5.618;2023-02-28T04:43:21;10.35;;;8.13;;
59728;SDS011;45588;51.598;5.618;2023-02-28T04:45:46;16.35;;;8.65;;
59728;SDS011;45588;51.598;5.618;2023-02-28T04:48:11;12.88;;;8.60;;
59728;SDS011;45588;51.598;5.618;2023-02-28T04:50:37;14.25;;;8.13;;
59728;SDS011;45588;51.598;5.618;2023-02-28T04:53:02;18.25;;;7.50;;
59728;SDS011;45588;51.598;5.618;2023-02-28T04:55:27;14.35;;;7.90;;
59728;SDS011;45588;51.598;5.618;2023-02-28T04:57:52;13.10;;;7.72;;
59728;SDS011;45588;51.598;5.618;2023-02-28T05:00:17;13.77;;;8.13;;
59728;SDS011;45588;51.598;5.618;2023-02-28T05:02:43;18.80;;;9.07;;
59728;SDS011;45588;51.598;5.618;2023-02-28T05:05:08;12.25;;;8.55;;
59728;SDS011;45588;51.598;5.618;2023-02-28T05:07:33;13.77;;;9.07;;
59728;SDS011;45588;51.598;5.618;2023-02-28T05:09:59;16.02;;;9.35;;
59728;SDS011;45588;51.598;5.618;2023-02-28T05:12:24;14.40;;;9.23;;
59728;SDS011;45588;51.598;5.618;2023-02-28T05:14:49;16.02;;;8.70;;
59728;SDS011;45588;51.598;5.618;2023-02-28T05:17:15;13.35;;;8.50;;
59728;SDS011;45588;51.598;5.618;2023-02-28T05:19:40;16.83;;;9.20;;
59728;SDS011;45588;51.598;5.618;2023-02-28T05:22:10;12.82;;;8.57;;
59728;SDS011;45588;51.598;5.618;2023-02-28T05:24:37;12.52;;;8.45;;
59728;SDS011;45588;51.598;5.618;2023-02-28T05:27:02;10.80;;;8.85;;
59728;SDS011;45588;51.598;5.618;2023-02-28T05:29:28;14.48;;;8.65;;
59728;SDS011;45588;51.598;5.618;2023-02-28T05:31:53;12.13;;;8.40;;
59728;SDS011;45588;51.598;5.618;2023-02-28T05:34:18;11.15;;;8.00;;
59728;SDS011;45588;51.598;5.618;2023-02-28T05:36:43;13.57;;;7.18;;
59728;SDS011;45588;51.598;5.618;2023-02-28T05:39:09;12.68;;;7.32;;
59728;SDS011;45588;51.598;5.618;2023-02-28T05:41:37;14.73;;;8.02;;
59728;SDS011;45588;51.598;5.618;2023-02-28T05:44:03;11.75;;;8.73;;
59728;SDS011;45588;51.598;5.618;2023-02-28T05:46:28;14.02;;;9.35;;
59728;SDS011;45588;51.598;5.618;2023-02-28T05:48:53;13.18;;;8.48;;
59728;SDS011;45588;51.598;5.618;2023-02-28T05:51:18;11.70;;;8.77;;
59728;SDS011;45588;51.598;5.618;2023-02-28T05:53:43;17.52;;;8.45;;
59728;SDS011;45588;51.598;5.618;2023-02-28T05:56:09;15.65;;;9.88;;
59728;SDS011;45588;51.598;5.618;2023-02-28T05:58:34;11.90;;;8.77;;
59728;SDS011;45588;51.598;5.618;2023-02-28T06:01:00;14.07;;;9.85;;
59728;SDS011;45588;51.598;5.618;2023-02-28T06:03:25;15.10;;;9.10;;
59728;SDS011;45588;51.598;5.618;2023-02-28T06:05:51;15.70;;;9.30;;
59728;SDS011;45588;51.598;5.618;2023-02-28T06:08:16;16.35;;;10.80;;
59728;SDS011;45588;51.598;5.618;2023-02-28T06:10:41;17.85;;;10.15;;
59728;SDS011;45588;51.598;5.618;2023-02-28T06:13:06;15.05;;;9.82;;
59728;SDS011;45588;51.598;5.618;2023-02-28T06:15:32;18.45;;;10.30;;
59728;SDS011;45588;51.598;5.618;2023-02-28T06:17:57;16.02;;;10.15;;
59728;SDS011;45588;51.598;5.618;2023-02-28T06:20:23;18.00;;;9.88;;
59728;SDS011;45588;51.598;5.618;2023-02-28T06:22:49;17.90;;;9.65;;
59728;SDS011;45588;51.598;5.618;2023-02-28T06:25:16;19.60;;;11.15;;
59728;SDS011;45588;51.598;5.618;2023-02-28T06:27:41;18.13;;;13.85;;
59728;SDS011;45588;51.598;5.618;2023-02-28T06:30:06;18.88;;;8.88;;
59728;SDS011;45588;51.598;5.618;2023-02-28T06:32:32;16.67;;;9.25;;
59728;SDS011;45588;51.598;5.618;2023-02-28T06:34:57;13.68;;;8.88;;
59728;SDS011;45588;51.598;5.618;2023-02-28T06:37:23;18.02;;;10.23;;
59728;SDS011;45588;51.598;5.618;2023-02-28T06:39:51;17.75;;;10.18;;
59728;SDS011;45588;51.598;5.618;2023-02-28T06:42:16;16.48;;;10.73;;
59728;SDS011;45588;51.598;5.618;2023-02-28T06:44:41;15.70;;;9.80;;
59728;SDS011;45588;51.598;5.618;2023-02-28T06:47:07;15.07;;;9.77;;
59728;SDS011;45588;51.598;5.618;2023-02-28T06:49:33;14.82;;;9.60;;
59728;SDS011;45588;51.598;5.618;2023-02-28T06:51:58;17.95;;;10.13;;
59728;SDS011;45588;51.598;5.618;2023-02-28T06:54:24;15.63;;;9.70;;
59728;SDS011;45588;51.598;5.618;2023-02-28T06:56:49;16.88;;;10.35;;
59728;SDS011;45588;51.598;5.618;2023-02-28T06:59:14;19.42;;;10.20;;
59728;SDS011;45588;51.598;5.618;2023-02-28T07:01:39;17.67;;;10.57;;
59728;SDS011;45588;51.598;5.618;2023-02-28T07:04:05;14.75;;;9.10;;
59728;SDS011;45588;51.598;5.618;2023-02-28T07:06:31;14.57;;;10.45;;
59728;SDS011;45588;51.598;5.618;2023-02-28T07:08:56;14.85;;;10.35;;
59728;SDS011;45588;51.598;5.618;2023-02-28T07:11:22;15.25;;;10.55;;
59728;SDS011;45588;51.598;5.618;2023-02-28T07:13:48;18.33;;;10.13;;
59728;SDS011;45588;51.598;5.618;2023-02-28T07:16:13;15.27;;;10.30;;
59728;SDS011;45588;51.598;5.618;2023-02-28T07:18:38;14.85;;;9.85;;
59728;SDS011;45588;51.598;5.618;2023-02-28T07:21:04;17.52;;;10.73;;
59728;SDS011;45588;51.598;5.618;2023-02-28T07:23:30;15.23;;;10.20;;
59728;SDS011;45588;51.598;5.618;2023-02-28T07:25:55;15.02;;;10.30;;
59728;SDS011;45588;51.598;5.618;2023-02-28T07:28:21;14.07;;;9.95;;
59728;SDS011;45588;51.598;5.618;2023-02-28T07:30:46;15.20;;;10.88;;
59728;SDS011;45588;51.598;5.618;2023-02-28T07:33:11;16.92;;;10.43;;
59728;SDS011;45588;51.598;5.618;2023-02-28T07:35:36;15.38;;;9.35;;
59728;SDS011;45588;51.598;5.618;2023-02-28T07:38:02;15.23;;;8.70;;
59728;SDS011;45588;51.598;5.618;2023-02-28T07:40:28;20.40;;;8.93;;
59728;SDS011;45588;51.598;5.618;2023-02-28T07:42:53;12.30;;;8.23;;
59728;SDS011;45588;51.598;5.618;2023-02-28T07:45:18;14.55;;;9.30;;
59728;SDS011;45588;51.598;5.618;2023-02-28T07:47:44;14.20;;;9.38;;
59728;SDS011;45588;51.598;5.618;2023-02-28T07:50:11;14.43;;;9.05;;
59728;SDS011;45588;51.598;5.618;2023-02-28T07:52:37;10.00;;;6.30;;
59728;SDS011;45588;51.598;5.618;2023-02-28T07:55:02;16.35;;;8.90;;
59728;SDS011;45588;51.598;5.618;2023-02-28T07:57:27;9.30;;;6.95;;
59728;SDS011;45588;51.598;5.618;2023-02-28T07:59:52;9.25;;;6.68;;
59728;SDS011;45588;51.598;5.618;2023-02-28T08:02:18;9.20;;;6.82;;
59728;SDS011;45588;51.598;5.618;2023-02-28T08:04:43;11.32;;;8.02;;
59728;SDS011;45588;51.598;5.618;2023-02-28T08:07:09;11.73;;;10.63;;
59728;SDS011;45588;51.598;5.618;2023-02-28T08:09:37;9.48;;;5.60;;
59728;SDS011;45588;51.598;5.618;2023-02-28T08:12:03;10.30;;;5.93;;
59728;SDS011;45588;51.598;5.618;2023-02-28T08:14:28;12.05;;;6.97;;
59728;SDS011;45588;51.598;5.618;2023-02-28T08:16:53;8.05;;;4.88;;
59728;SDS011;45588;51.598;5.618;2023-02-28T08:19:19;7.53;;;5.30;;
59728;SDS011;45588;51.598;5.618;2023-02-28T08:21:44;8.68;;;5.90;;
59728;SDS011;45588;51.598;5.618;2023-02-28T08:24:09;10.67;;;5.67;;
59728;SDS011;45588;51.598;5.618;2023-02-28T08:26:34;6.78;;;5.68;;
59728;SDS011;45588;51.598;5.618;2023-02-28T08:29:00;9.90;;;5.75;;
59728;SDS011;45588;51.598;5.618;2023-02-28T08:31:25;8.52;;;6.88;;
59728;SDS011;45588;51.598;5.618;2023-02-28T08:33:50;12.02;;;8.52;;
59728;SDS011;45588;51.598;5.618;2023-02-28T08:36:17;9.75;;;6.18;;
59728;SDS011;45588;51.598;5.618;2023-02-28T08:38:42;6.65;;;5.03;;
59728;SDS011;45588;51.598;5.618;2023-02-28T08:41:09;5.72;;;4.65;;
59728;SDS011;45588;51.598;5.618;2023-02-28T08:43:34;7.55;;;5.50;;
59728;SDS011;45588;51.598;5.618;2023-02-28T08:45:59;4.25;;;3.63;;
59728;SDS011;45588;51.598;5.618;2023-02-28T08:48:29;6.60;;;4.53;;
59728;SDS011;45588;51.598;5.618;2023-02-28T08:50:55;6.70;;;3.83;;
59728;SDS011;45588;51.598;5.618;2023-02-28T08:53:20;5.00;;;3.47;;
59728;SDS011;45588;51.598;5.618;2023-02-28T08:55:46;5.88;;;3.60;;
59728;SDS011;45588;51.598;5.618;2023-02-28T08:58:11;3.65;;;3.35;;
59728;SDS011;45588;51.598;5.618;2023-02-28T09:00:36;6.05;;;4.57;;
59728;SDS011;45588;51.598;5.618;2023-02-28T09:03:01;5.07;;;3.47;;
59728;SDS011;45588;51.598;5.618;2023-02-28T09:05:27;4.68;;;3.80;;
59728;SDS011;45588;51.598;5.618;2023-02-28T09:07:54;5.82;;;3.40;;
59728;SDS011;45588;51.598;5.618;2023-02-28T09:10:19;3.50;;;3.15;;
59728;SDS011;45588;51.598;5.618;2023-02-28T09:12:44;4.60;;;3.75;;
59728;SDS011;45588;51.598;5.618;2023-02-28T09:15:11;5.93;;;3.53;;
59728;SDS011;45588;51.598;5.618;2023-02-28T09:17:36;7.03;;;4.30;;
59728;SDS011;45588;51.598;5.618;2023-02-28T09:20:02;7.03;;;3.90;;
59728;SDS011;45588;51.598;5.618;2023-02-28T09:22:27;4.90;;;4.10;;
59728;SDS011;45588;51.598;5.618;2023-02-28T09:24:52;5.55;;;3.45;;
59728;SDS011;45588;51.598;5.618;2023-02-28T09:27:17;5.82;;;3.53;;
59728;SDS011;45588;51.598;5.618;2023-02-28T09:29:42;6.05;;;5.43;;
59728;SDS011;45588;51.598;5.618;2023-02-28T09:32:08;6.25;;;3.78;;
59728;SDS011;45588;51.598;5.618;2023-02-28T09:34:33;3.75;;;3.30;;
59728;SDS011;45588;51.598;5.618;2023-02-28T09:36:58;7.95;;;4.25;;
59728;SDS011;45588;51.598;5.618;2023-02-28T09:39:23;5.63;;;4.35;;
59728;SDS011;45588;51.598;5.618;2023-02-28T09:41:52;8.02;;;5.78;;
59728;SDS011;45588;51.598;5.618;2023-02-28T09:44:29;8.50;;;4.45;;
59728;SDS011;45588;51.598;5.618;2023-02-28T09:47:00;3.55;;;3.15;;
59728;SDS011;45588;51.598;5.618;2023-02-28T09:49:28;4.15;;;2.97;;
59728;SDS011;45588;51.598;5.618;2023-02-28T09:51:58;5.53;;;5.03;;
59728;SDS011;45588;51.598;5.618;2023-02-28T09:54:27;4.05;;;3.38;;
59728;SDS011;45588;51.598;5.618;2023-02-28T09:57:37;5.70;;;3.30;;
59728;SDS011;45588;51.598;5.618;2023-02-28T09:59:51;5.22;;;3.88;;
59728;SDS011;45588;51.598;5.618;2023-02-28T10:05:06;5.88;;;4.68;;
59728;SDS011;45588;51.598;5.618;2023-02-28T10:10:21;2.40;;;2.20;;
59728;SDS011;45588;51.598;5.618;2023-02-28T10:12:48;8.00;;;3.28;;
59728;SDS011;45588;51.598;5.618;2023-02-28T10:15:16;3.50;;;2.63;;
59728;SDS011;45588;51.598;5.618;2023-02-28T10:17:42;2.53;;;2.33;;
59728;SDS011;45588;51.598;5.618;2023-02-28T10:20:12;2.45;;;2.22;;
59728;SDS011;45588;51.598;5.618;2023-02-28T10:25:24;4.57;;;3.58;;
59728;SDS011;45588;51.598;5.618;2023-02-28T10:27:54;2.88;;;2.67;;
59728;SDS011;45588;51.598;5.618;2023-02-28T10:30:20;4.05;;;3.42;;
59728;SDS011;45588;51.598;5.618;2023-02-28T10:32:47;2.72;;;2.53;;
59728;SDS011;45588;51.598;5.618;2023-02-28T10:35:15;2.85;;;2.55;;
59728;SDS011;45588;51.598;5.618;2023-02-28T10:37:41;2.75;;;2.42;;
59728;SDS011;45588;51.598;5.618;2023-02-28T10:40:07;2.55;;;2.15;;
59728;SDS011;45588;51.598;5.618;2023-02-28T10:42:59;6.95;;;2.22;;
59728;SDS011;45588;51.598;5.618;2023-02-28T10:45:24;3.10;;;2.15;;
59728;SDS011;45588;51.598;5.618;2023-02-28T10:47:57;4.93;;;4.00;;
59728;SDS011;45588;51.598;5.618;2023-02-28T10:55:23;3.03;;;2.25;;
59728;SDS011;45588;51.598;5.618;2023-02-28T10:57:50;6.07;;;3.33;;
59728;SDS011;45588;51.598;5.618;2023-02-28T11:00:19;5.25;;;3.03;;
59728;SDS011;45588;51.598;5.618;2023-02-28T11:02:46;3.97;;;2.38;;
59728;SDS011;45588;51.598;5.618;2023-02-28T11:07:52;2.42;;;2.17;;
59728;SDS011;45588;51.598;5.618;2023-02-28T11:10:19;3.47;;;2.80;;
59728;SDS011;45588;51.598;5.618;2023-02-28T11:12:46;3.88;;;2.38;;
59728;SDS011;45588;51.598;5.618;2023-02-28T11:15:20;3.88;;;3.47;;
59728;SDS011;45588;51.598;5.618;2023-02-28T11:17:53;2.58;;;2.20;;
59728;SDS011;45588;51.598;5.618;2023-02-28T11:20:22;4.72;;;2.42;;
59728;SDS011;45588;51.598;5.618;2023-02-28T11:22:48;2.78;;;2.20;;
59728;SDS011;45588;51.598;5.618;2023-02-28T11:25:20;5.45;;;2.47;;
59728;SDS011;45588;51.598;5.618;2023-02-28T11:27:52;3.30;;;2.30;;
59728;SDS011;45588;51.598;5.618;2023-02-28T11:32:53;4.03;;;2.30;;
59728;SDS011;45588;51.598;5.618;2023-02-28T11:35:24;3.92;;;2.42;;
59728;SDS011;45588;51.598;5.618;2023-02-28T11:37:50;2.50;;;2.30;;
59728;SDS011;45588;51.598;5.618;2023-02-28T11:40:18;4.30;;;3.47;;
59728;SDS011;45588;51.598;5.618;2023-02-28T11:42:46;2.75;;;2.55;;
59728;SDS011;45588;51.598;5.618;2023-02-28T11:52:42;5.43;;;3.10;;
59728;SDS011;45588;51.598;5.618;2023-02-28T11:55:20;6.57;;;2.70;;
59728;SDS011;45588;51.598;5.618;2023-02-28T12:02:51;4.10;;;3.63;;
59728;SDS011;45588;51.598;5.618;2023-02-28T12:05:24;3.65;;;2.67;;
59728;SDS011;45588;51.598;5.618;2023-02-28T12:10:22;4.20;;;3.13;;
59728;SDS011;45588;51.598;5.618;2023-02-28T12:15:30;5.05;;;3.85;;
59728;SDS011;45588;51.598;5.618;2023-02-28T12:28:24;5.07;;;3.70;;
59728;SDS011;45588;51.598;5.618;2023-02-28T12:30:56;4.22;;;2.85;;
59728;SDS011;45588;51.598;5.618;2023-02-28T12:33:24;3.42;;;2.72;;
59728;SDS011;45588;51.598;5.618;2023-02-28T12:35:55;4.20;;;3.80;;
59728;SDS011;45588;51.598;5.618;2023-02-28T12:38:22;4.82;;;3.65;;
59728;SDS011;45588;51.598;5.618;2023-02-28T12:41:00;3.22;;;2.90;;
59728;SDS011;45588;51.598;5.618;2023-02-28T12:43:27;3.75;;;3.45;;
59728;SDS011;45588;51.598;5.618;2023-02-28T12:45:56;4.07;;;3.25;;
59728;SDS011;45588;51.598;5.618;2023-02-28T12:48:39;4.45;;;4.07;;
59728;SDS011;45588;51.598;5.618;2023-02-28T12:51:05;5.03;;;3.60;;
59728;SDS011;45588;51.598;5.618;2023-02-28T12:53:35;4.68;;;3.63;;
59728;SDS011;45588;51.598;5.618;2023-02-28T12:56:13;5.22;;;4.35;;
59728;SDS011;45588;51.598;5.618;2023-02-28T12:58:43;3.72;;;3.35;;
59728;SDS011;45588;51.598;5.618;2023-02-28T13:09:40;3.50;;;2.53;;
59728;SDS011;45588;51.598;5.618;2023-02-28T13:12:14;5.20;;;3.30;;
59728;SDS011;45588;51.598;5.618;2023-02-28T13:14:40;3.97;;;3.47;;
59728;SDS011;45588;51.598;5.618;2023-02-28T13:22:15;4.15;;;2.95;;
59728;SDS011;45588;51.598;5.618;2023-02-28T13:24:42;3.58;;;3.28;;
59728;SDS011;45588;51.598;5.618;2023-02-28T13:29:38;6.72;;;3.85;;
59728;SDS011;45588;51.598;5.618;2023-02-28T13:34:38;5.03;;;4.07;;
59728;SDS011;45588;51.598;5.618;2023-02-28T13:40:06;4.30;;;3.97;;
59728;SDS011;45588;51.598;5.618;2023-02-28T13:42:35;4.05;;;3.75;;
59728;SDS011;45588;51.598;5.618;2023-02-28T13:50:14;4.80;;;3.55;;
59728;SDS011;45588;51.598;5.618;2023-02-28T14:00:34;3.78;;;2.90;;
59728;SDS011;45588;51.598;5.618;2023-02-28T14:03:10;4.25;;;3.85;;
59728;SDS011;45588;51.598;5.618;2023-02-28T14:05:39;5.03;;;3.88;;
59728;SDS011;45588;51.598;5.618;2023-02-28T14:08:06;3.75;;;2.53;;
59728;SDS011;45588;51.598;5.618;2023-02-28T14:10:43;5.43;;;3.65;;
59728;SDS011;45588;51.598;5.618;2023-02-28T14:15:59;5.20;;;2.83;;
59728;SDS011;45588;51.598;5.618;2023-02-28T14:18:30;3.58;;;2.95;;
59728;SDS011;45588;51.598;5.618;2023-02-28T14:20:57;3.33;;;3.03;;
59728;SDS011;45588;51.598;5.618;2023-02-28T14:36:55;4.57;;;4.18;;
59728;SDS011;45588;51.598;5.618;2023-02-28T14:39:04;3.55;;;3.25;;
59728;SDS011;45588;51.598;5.618;2023-02-28T14:41:31;3.92;;;3.35;;
59728;SDS011;45588;51.598;5.618;2023-02-28T14:44:00;5.32;;;4.10;;
59728;SDS011;45588;51.598;5.618;2023-02-28T14:46:35;3.75;;;3.00;;
59728;SDS011;45588;51.598;5.618;2023-02-28T14:49:01;4.70;;;3.78;;
59728;SDS011;45588;51.598;5.618;2023-02-28T14:51:26;5.43;;;3.53;;
59728;SDS011;45588;51.598;5.618;2023-02-28T14:53:56;5.13;;;3.35;;
59728;SDS011;45588;51.598;5.618;2023-02-28T14:56:26;6.07;;;3.60;;
59728;SDS011;45588;51.598;5.618;2023-02-28T14:58:53;3.47;;;3.17;;
59728;SDS011;45588;51.598;5.618;2023-02-28T15:01:23;4.45;;;4.05;;
59728;SDS011;45588;51.598;5.618;2023-02-28T15:03:56;2.53;;;2.33;;
59728;SDS011;45588;51.598;5.618;2023-02-28T15:06:22;4.80;;;4.10;;
59728;SDS011;45588;51.598;5.618;2023-02-28T15:08:48;4.45;;;4.05;;
59728;SDS011;45588;51.598;5.618;2023-02-28T15:11:14;5.83;;;4.03;;
59728;SDS011;45588;51.598;5.618;2023-02-28T15:13:45;3.85;;;3.47;;
59728;SDS011;45588;51.598;5.618;2023-02-28T15:16:21;5.97;;;4.22;;
59728;SDS011;45588;51.598;5.618;2023-02-28T15:23:51;5.03;;;4.40;;
59728;SDS011;45588;51.598;5.618;2023-02-28T15:26:19;5.38;;;3.92;;
59728;SDS011;45588;51.598;5.618;2023-02-28T15:28:45;5.00;;;4.60;;
59728;SDS011;45588;51.598;5.618;2023-02-28T15:33:56;4.30;;;3.88;;
59728;SDS011;45588;51.598;5.618;2023-02-28T15:36:24;4.32;;;3.92;;
59728;SDS011;45588;51.598;5.618;2023-02-28T15:38:50;5.30;;;3.45;;
59728;SDS011;45588;51.598;5.618;2023-02-28T15:41:35;4.00;;;3.22;;
59728;SDS011;45588;51.598;5.618;2023-02-28T15:44:24;5.47;;;3.60;;
59728;SDS011;45588;51.598;5.618;2023-02-28T15:47:33;4.22;;;3.83;;
59728;SDS011;45588;51.598;5.618;2023-02-28T15:49:40;5.53;;;4.20;;
59728;SDS011;45588;51.598;5.618;2023-02-28T15:52:11;4.65;;;4.00;;
59728;SDS011;45588;51.598;5.618;2023-02-28T15:54:38;4.72;;;4.32;;
59728;SDS011;45588;51.598;5.618;2023-02-28T15:57:06;7.78;;;4.63;;
59728;SDS011;45588;51.598;5.618;2023-02-28T15:59:33;6.32;;;4.78;;
59728;SDS011;45588;51.598;5.618;2023-02-28T16:04:34;5.05;;;4.65;;
59728;SDS011;45588;51.598;5.618;2023-02-28T16:07:04;4.68;;;4.18;;
59728;SDS011;45588;51.598;5.618;2023-02-28T16:09:29;6.43;;;5.15;;
59728;SDS011;45588;51.598;5.618;2023-02-28T16:11:55;6.15;;;3.80;;
59728;SDS011;45588;51.598;5.618;2023-02-28T16:14:23;4.38;;;3.97;;
59728;SDS011;45588;51.598;5.618;2023-02-28T16:16:50;9.95;;;4.03;;
59728;SDS011;45588;51.598;5.618;2023-02-28T16:19:16;4.63;;;4.10;;
59728;SDS011;45588;51.598;5.618;2023-02-28T16:21:41;4.38;;;3.78;;
59728;SDS011;45588;51.598;5.618;2023-02-28T16:24:07;5.10;;;4.22;;
59728;SDS011;45588;51.598;5.618;2023-02-28T16:26:32;5.70;;;3.58;;
59728;SDS011;45588;51.598;5.618;2023-02-28T16:28:59;3.83;;;3.50;;
59728;SDS011;45588;51.598;5.618;2023-02-28T16:31:24;4.15;;;3.70;;
59728;SDS011;45588;51.598;5.618;2023-02-28T16:33:49;4.18;;;3.78;;
59728;SDS011;45588;51.598;5.618;2023-02-28T16:36:19;5.32;;;4.78;;
59728;SDS011;45588;51.598;5.618;2023-02-28T16:38:44;5.43;;;3.85;;
59728;SDS011;45588;51.598;5.618;2023-02-28T16:41:12;4.63;;;4.05;;
59728;SDS011;45588;51.598;5.618;2023-02-28T16:43:41;4.95;;;4.45;;
59728;SDS011;45588;51.598;5.618;2023-02-28T16:46:08;4.22;;;3.83;;
59728;SDS011;45588;51.598;5.618;2023-02-28T16:48:34;5.40;;;4.88;;
59728;SDS011;45588;51.598;5.618;2023-02-28T16:51:00;4.20;;;3.90;;
59728;SDS011;45588;51.598;5.618;2023-02-28T16:53:25;4.13;;;3.63;;
59728;SDS011;45588;51.598;5.618;2023-02-28T16:55:50;8.27;;;4.60;;
59728;SDS011;45588;51.598;5.618;2023-02-28T16:58:15;4.22;;;3.78;;
59728;SDS011;45588;51.598;5.618;2023-02-28T17:00:42;5.47;;;4.65;;
59728;SDS011;45588;51.598;5.618;2023-02-28T17:03:12;4.38;;;3.97;;
59728;SDS011;45588;51.598;5.618;2023-02-28T17:05:41;7.05;;;4.10;;